Time;durP1;ratioP1;P1;durP2;ratioP2;P2;SDS_P1;SDS_P2;PMS_P1;PMS_P2;Temp;Humidity;BMP_temperature;BMP_pressure;BME280_temperature;BME280_humidity;BME280_pressure;Samples;Min_cycle;Max_cycle;Signal;HPM_P1;HPM_P2
2022/12/29 00:02:13;;;;;;;2.60;0.60;;;19.70;58.70;;;;;;5072542;28;20052;-60
2022/12/29 00:04:38;;;;;;;2.05;0.50;;;19.70;58.70;;;;;;5072648;28;20036;-60
2022/12/29 00:07:04;;;;;;;1.95;0.50;;;19.60;58.70;;;;;;5072913;28;20048;-60
2022/12/29 00:09:30;;;;;;;1.75;0.60;;;19.60;59.40;;;;;;5072674;28;20083;-60
2022/12/29 00:11:56;;;;;;;1.23;0.75;;;19.60;58.70;;;;;;5071912;28;20051;-60
2022/12/29 00:17:05;;;;;;;3.95;0.70;;;19.60;58.80;;;;;;5072281;28;20080;-60
2022/12/29 00:36:25;;;;;;;1.92;0.50;;;19.50;58.70;;;;;;5072669;28;20045;-60
2022/12/29 00:44:21;;;;;;;1.70;0.60;;;19.50;58.80;;;;;;5067947;28;20045;-60
2022/12/29 00:46:46;;;;;;;0.95;0.45;;;19.50;58.80;;;;;;5051850;28;20040;-61
2022/12/29 00:49:30;;;;;;;1.35;0.50;;;19.40;58.70;;;;;;5052430;28;20037;-60
2022/12/29 00:52:16;;;;;;;1.52;0.45;;;19.40;58.70;;;;;;5052245;28;20055;-60
2022/12/29 00:54:44;;;;;;;2.03;0.40;;;19.40;58.70;;;;;;5051945;28;20053;-60
2022/12/29 00:57:10;;;;;;;2.05;0.50;;;19.40;58.70;;;;;;5052224;28;20091;-60
2022/12/29 00:59:39;;;;;;;1.48;0.60;;;19.40;58.70;;;;;;5051826;28;20634;-60
2022/12/29 01:02:05;;;;;;;1.40;0.55;;;19.40;58.80;;;;;;5052084;28;20480;-60
2022/12/29 01:04:31;;;;;;;1.67;0.50;;;19.40;58.70;;;;;;5051833;28;20120;-60
2022/12/29 01:06:56;;;;;;;0.90;0.47;;;19.40;58.70;;;;;;5051639;28;20512;-60
2022/12/29 01:12:07;;;;;;;2.25;0.80;;;19.40;58.80;;;;;;5051907;28;20412;-60
2022/12/29 01:14:33;;;;;;;1.63;0.60;;;19.40;58.80;;;;;;5050902;28;20128;-60
2022/12/29 01:16:58;;;;;;;1.85;0.60;;;19.30;58.70;;;;;;5052131;28;20564;-60
2022/12/29 01:19:24;;;;;;;2.15;0.50;;;19.30;58.80;;;;;;5051936;28;20052;-60
2022/12/29 01:21:50;;;;;;;1.67;0.30;;;19.40;58.80;;;;;;5051071;28;20111;-60
2022/12/29 01:24:16;;;;;;;1.02;0.50;;;19.30;58.70;;;;;;5051954;28;20489;-60
2022/12/29 01:26:41;;;;;;;1.00;0.50;;;19.30;58.70;;;;;;5052339;28;20080;-60
2022/12/29 01:29:07;;;;;;;1.35;0.55;;;19.30;58.70;;;;;;5051588;28;20073;-60
2022/12/29 01:31:33;;;;;;;1.92;0.50;;;19.30;58.80;;;;;;5051602;28;20044;-60
2022/12/29 01:33:58;;;;;;;1.25;0.60;;;19.30;59.50;;;;;;5062509;28;20075;-60
2022/12/29 01:36:24;;;;;;;1.40;0.50;;;19.30;58.70;;;;;;5074679;28;20045;-60
2022/12/29 01:38:49;;;;;;;2.70;0.82;;;19.30;58.70;;;;;;5070961;28;20051;-60
2022/12/29 01:41:16;;;;;;;0.90;0.50;;;19.30;58.70;;;;;;5075815;28;20044;-60
2022/12/29 01:43:47;;;;;;;0.80;0.50;;;19.30;58.80;;;;;;5075190;28;20123;-59
2022/12/29 01:46:38;;;;;;;2.22;0.77;;;19.30;58.70;;;;;;5075644;28;20051;-60
2022/12/29 01:49:13;;;;;;;1.23;0.50;;;19.20;58.60;;;;;;5075123;28;20044;-60
2022/12/29 01:51:40;;;;;;;1.13;0.43;;;19.20;58.60;;;;;;5074881;28;20076;-60
2022/12/29 01:54:12;;;;;;;0.82;0.40;;;19.20;58.70;;;;;;5074641;28;20032;-60
2022/12/29 01:56:38;;;;;;;1.77;0.50;;;19.20;58.70;;;;;;5074861;28;20044;-60
2022/12/29 01:59:06;;;;;;;1.23;0.50;;;19.20;58.70;;;;;;5075587;28;20105;-60
2022/12/29 02:01:31;;;;;;;0.95;0.50;;;19.20;58.70;;;;;;5057268;28;20063;-60
2022/12/29 02:03:57;;;;;;;0.90;0.40;;;19.20;58.70;;;;;;5074597;28;20391;-60
2022/12/29 02:06:26;;;;;;;1.67;0.50;;;19.20;58.70;;;;;;5075328;28;20047;-60
2022/12/29 02:08:53;;;;;;;0.70;0.50;;;19.20;58.70;;;;;;5074550;28;20044;-60
2022/12/29 02:11:18;;;;;;;1.13;0.50;;;19.20;58.70;;;;;;5073206;28;20086;-60
2022/12/29 02:13:44;;;;;;;1.38;0.60;;;19.20;58.70;;;;;;5075059;28;20057;-60
2022/12/29 02:16:33;;;;;;;0.75;0.43;;;19.20;58.70;;;;;;5074947;28;20055;-60
2022/12/29 02:19:21;;;;;;;1.73;0.50;;;19.20;58.70;;;;;;5073643;28;20036;-60
2022/12/29 02:21:56;;;;;;;0.93;0.47;;;19.10;58.70;;;;;;5074988;28;20097;-60
2022/12/29 02:24:40;;;;;;;1.13;0.35;;;19.20;58.70;;;;;;5074247;28;20052;-60
2022/12/29 02:27:20;;;;;;;0.57;0.30;;;19.10;58.70;;;;;;5075516;28;20045;-60
2022/12/29 02:29:46;;;;;;;1.98;0.43;;;19.10;58.70;;;;;;5074970;28;20045;-60
2022/12/29 02:32:33;;;;;;;0.82;0.40;;;19.10;58.70;;;;;;5074461;28;20051;-60
2022/12/29 02:35:14;;;;;;;0.87;0.37;;;19.10;58.70;;;;;;5073820;28;20075;-60
2022/12/29 02:38:03;;;;;;;1.23;0.45;;;19.10;58.70;;;;;;5073615;28;20044;-60
2022/12/29 02:40:43;;;;;;;0.80;0.40;;;19.10;58.70;;;;;;5073173;28;20053;-59
2022/12/29 02:43:25;;;;;;;0.80;0.40;;;19.10;58.70;;;;;;5072835;28;20411;-60
2022/12/29 02:45:58;;;;;;;1.25;0.40;;;19.10;58.70;;;;;;5073934;28;20079;-60
2022/12/29 02:48:37;;;;;;;0.68;0.40;;;19.10;58.70;;;;;;5073439;28;20052;-60
2022/12/29 02:51:12;;;;;;;0.60;0.32;;;19.10;58.70;;;;;;5072916;28;20041;-61
2022/12/29 02:56:22;;;;;;;0.82;0.43;;;19.10;58.70;;;;;;5073200;28;20487;-60
2022/12/29 02:58:48;;;;;;;1.02;0.55;;;19.10;58.70;;;;;;5073615;28;20037;-60
2022/12/29 03:01:22;;;;;;;0.73;0.32;;;19.20;58.80;;;;;;5058234;28;20516;-60
2022/12/29 03:04:12;;;;;;;0.73;0.47;;;19.20;58.70;;;;;;5033113;28;20053;-61
2022/12/29 03:07:02;;;;;;;0.95;0.40;;;19.20;58.70;;;;;;5032014;28;20088;-61
2022/12/29 03:09:55;;;;;;;0.82;0.30;;;19.20;58.70;;;;;;5028865;28;20050;-61
2022/12/29 03:18:15;;;;;;;0.57;0.30;;;19.20;58.70;;;;;;5033445;28;20049;-60
2022/12/29 03:20:53;;;;;;;0.80;0.40;;;19.20;58.70;;;;;;5032242;28;20540;-60
2022/12/29 03:23:18;;;;;;;1.13;0.52;;;19.20;58.70;;;;;;5032811;28;20042;-60
2022/12/29 03:25:50;;;;;;;0.98;0.30;;;19.20;58.70;;;;;;5032876;28;20098;-61
2022/12/29 03:28:41;;;;;;;0.35;0.30;;;19.20;58.80;;;;;;5031636;28;20041;-60
2022/12/29 03:31:07;;;;;;;1.20;0.30;;;19.20;58.80;;;;;;5033432;28;20489;-60
2022/12/29 03:33:33;;;;;;;0.98;0.32;;;19.20;58.80;;;;;;5033584;28;20489;-61
2022/12/29 03:36:04;;;;;;;0.93;0.50;;;19.30;58.80;;;;;;5033415;28;20087;-60
2022/12/29 03:38:45;;;;;;;1.10;0.38;;;19.30;58.80;;;;;;5032342;28;20046;-60
2022/12/29 03:41:17;;;;;;;0.85;0.40;;;19.20;58.70;;;;;;5031676;28;20554;-60
2022/12/29 03:43:43;;;;;;;1.10;0.30;;;19.30;58.80;;;;;;5032493;28;20501;-60
2022/12/29 03:46:08;;;;;;;0.20;0.20;;;19.30;58.80;;;;;;5033651;28;20050;-61
2022/12/29 03:48:34;;;;;;;0.73;0.30;;;19.30;58.70;;;;;;5032698;28;20047;-60
2022/12/29 03:50:59;;;;;;;0.38;0.30;;;19.30;58.70;;;;;;5033820;28;20604;-60
2022/12/29 03:53:25;;;;;;;0.50;0.40;;;19.30;58.80;;;;;;5033652;28;20444;-60
2022/12/29 03:55:50;;;;;;;0.50;0.40;;;19.30;58.70;;;;;;5032881;28;20072;-60
2022/12/29 03:58:16;;;;;;;0.70;0.30;;;19.30;58.70;;;;;;5037112;28;20041;-60
2022/12/29 04:00:41;;;;;;;1.27;0.30;;;19.30;58.70;;;;;;5053111;28;20102;-60
2022/12/29 04:03:07;;;;;;;1.08;0.35;;;19.30;58.70;;;;;;5052439;28;20040;-60
2022/12/29 04:05:32;;;;;;;2.05;0.40;;;19.30;58.70;;;;;;5053291;28;20115;-60
2022/12/29 04:07:58;;;;;;;0.77;0.30;;;19.30;58.70;;;;;;5052962;28;20064;-60
2022/12/29 04:10:24;;;;;;;1.33;0.30;;;19.40;58.80;;;;;;5052315;28;20083;-60
2022/12/29 04:12:49;;;;;;;0.85;0.40;;;19.40;58.70;;;;;;5048007;28;20095;-60
2022/12/29 04:15:16;;;;;;;0.52;0.30;;;19.40;58.70;;;;;;5052662;28;20057;-60
2022/12/29 04:17:41;;;;;;;1.17;0.30;;;19.40;58.70;;;;;;5052168;28;20049;-60
2022/12/29 04:22:59;;;;;;;2.00;0.40;;;19.40;58.60;;;;;;5053245;28;20041;-60
2022/12/29 04:25:25;;;;;;;0.52;0.30;;;19.40;58.70;;;;;;5052014;28;20075;-60
2022/12/29 04:27:50;;;;;;;0.30;0.20;;;19.50;58.70;;;;;;5053013;28;20073;-60
2022/12/29 04:30:16;;;;;;;1.45;0.50;;;19.50;58.70;;;;;;5051790;28;20036;-60
2022/12/29 04:32:42;;;;;;;1.05;0.30;;;19.50;58.70;;;;;;5052906;28;20033;-60
2022/12/29 04:35:08;;;;;;;2.20;0.35;;;19.50;58.60;;;;;;5052811;28;20041;-60
2022/12/29 04:37:33;;;;;;;0.40;0.30;;;19.50;58.60;;;;;;5052268;28;20036;-60
2022/12/29 04:39:59;;;;;;;0.35;0.20;;;19.50;58.60;;;;;;5052146;28;20048;-60
2022/12/29 04:42:24;;;;;;;0.73;0.30;;;19.60;58.60;;;;;;5052002;28;20045;-60
2022/12/29 04:44:50;;;;;;;0.30;0.20;;;19.60;58.60;;;;;;5051811;28;20178;-60
2022/12/29 04:47:15;;;;;;;0.68;0.30;;;19.60;58.70;;;;;;5052471;28;20075;-60
2022/12/29 04:49:41;;;;;;;1.55;0.50;;;19.60;58.70;;;;;;5052502;28;20041;-60
2022/12/29 04:52:08;;;;;;;0.73;0.40;;;19.60;58.60;;;;;;5051767;28;20052;-60
2022/12/29 04:54:33;;;;;;;0.32;0.20;;;19.60;58.60;;;;;;5052324;28;20056;-60
2022/12/29 04:56:59;;;;;;;0.90;0.30;;;19.70;58.60;;;;;;5052719;28;20037;-60
2022/12/29 04:59:24;;;;;;;0.85;0.40;;;19.70;58.60;;;;;;5051272;28;20059;-60
2022/12/29 05:01:50;;;;;;;0.40;0.30;;;19.70;58.60;;;;;;5043475;28;20041;-60
2022/12/29 05:04:16;;;;;;;0.30;0.30;;;19.70;58.60;;;;;;5048610;28;20469;-60
2022/12/29 05:06:41;;;;;;;0.70;0.30;;;19.70;58.50;;;;;;5051053;28;20045;-60
2022/12/29 05:09:07;;;;;;;1.15;0.40;;;19.70;58.80;;;;;;5051681;28;20036;-60
2022/12/29 05:11:32;;;;;;;0.43;0.38;;;19.70;58.50;;;;;;5051956;28;20449;-60
2022/12/29 05:13:58;;;;;;;0.30;0.30;;;19.70;58.50;;;;;;5051135;28;20107;-60
2022/12/29 05:16:23;;;;;;;2.28;0.30;;;19.70;58.50;;;;;;5051866;28;20049;-60
2022/12/29 05:18:49;;;;;;;0.30;0.20;;;19.80;58.50;;;;;;5051142;28;20056;-61
2022/12/29 05:21:14;;;;;;;0.82;0.30;;;19.80;58.50;;;;;;5049987;28;20041;-60
2022/12/29 05:23:40;;;;;;;0.40;0.30;;;19.80;58.50;;;;;;5051910;28;20044;-60
2022/12/29 05:26:05;;;;;;;0.63;0.40;;;19.80;58.50;;;;;;5052316;28;20033;-60
2022/12/29 05:28:31;;;;;;;0.98;0.20;;;19.80;58.50;;;;;;5051086;28;20469;-60
2022/12/29 05:30:56;;;;;;;0.40;0.30;;;19.80;58.50;;;;;;5052085;28;20052;-60
2022/12/29 05:33:22;;;;;;;0.57;0.30;;;19.80;58.50;;;;;;5051617;28;20082;-60
2022/12/29 05:35:48;;;;;;;0.30;0.20;;;19.80;58.50;;;;;;5051540;28;20058;-60
2022/12/29 05:38:13;;;;;;;0.60;0.30;;;19.80;58.50;;;;;;5051674;28;20472;-60
2022/12/29 05:40:39;;;;;;;0.55;0.30;;;19.80;58.40;;;;;;5051144;28;20128;-60
2022/12/29 05:43:04;;;;;;;0.75;0.30;;;19.80;58.40;;;;;;5051991;28;20531;-60
2022/12/29 05:45:30;;;;;;;0.38;0.20;;;19.80;58.40;;;;;;5051820;28;20487;-60
2022/12/29 05:47:55;;;;;;;0.32;0.20;;;19.90;58.40;;;;;;5051408;28;20094;-60
2022/12/29 05:50:21;;;;;;;3.00;0.40;;;19.90;58.40;;;;;;5051849;28;20075;-61
2022/12/29 05:52:46;;;;;;;0.95;0.30;;;19.90;58.40;;;;;;5046571;28;20052;-60
2022/12/29 05:55:12;;;;;;;0.30;0.30;;;19.90;58.40;;;;;;5051169;28;20140;-60
2022/12/29 05:57:38;;;;;;;0.90;0.30;;;19.90;58.40;;;;;;5050803;28;20049;-63
2022/12/29 06:00:07;;;;;;;0.65;0.20;;;19.90;58.40;;;;;;5052178;28;20523;-61
2022/12/29 06:02:32;;;;;;;0.65;0.20;;;19.90;58.40;;;;;;5050931;28;20083;-60
2022/12/29 06:04:58;;;;;;;0.38;0.10;;;19.90;58.40;;;;;;5051474;28;20037;-60
2022/12/29 06:07:23;;;;;;;0.80;0.35;;;19.90;58.30;;;;;;5051657;28;20071;-60
2022/12/29 06:09:49;;;;;;;0.55;0.20;;;19.90;58.40;;;;;;5051158;28;20154;-60
2022/12/29 06:12:15;;;;;;;0.35;0.20;;;19.90;58.30;;;;;;5051469;28;20128;-61
2022/12/29 06:14:40;;;;;;;1.23;0.30;;;19.90;58.30;;;;;;5051449;28;20144;-61
2022/12/29 06:17:06;;;;;;;0.47;0.20;;;19.90;58.30;;;;;;5051300;28;20041;-60
2022/12/29 06:19:31;;;;;;;0.68;0.30;;;19.90;58.20;;;;;;5051306;28;20052;-60
2022/12/29 06:21:57;;;;;;;1.10;0.20;;;19.90;58.20;;;;;;5054438;28;20094;-61
2022/12/29 06:24:22;;;;;;;0.50;0.20;;;19.90;58.20;;;;;;5054334;28;20044;-61
2022/12/29 06:26:48;;;;;;;0.80;0.30;;;19.90;58.20;;;;;;5055328;28;20045;-60
2022/12/29 06:29:16;;;;;;;0.85;0.30;;;20.00;58.20;;;;;;5054898;28;20480;-61
2022/12/29 06:31:45;;;;;;;0.52;0.20;;;19.90;58.10;;;;;;5054105;28;20094;-60
2022/12/29 06:34:11;;;;;;;;;;;19.90;58.10;;;;;;5055437;28;20040;-60
2022/12/29 06:36:36;;;;;;;0.57;0.30;;;19.90;58.10;;;;;;5055149;28;19931;-60
2022/12/29 06:39:02;;;;;;;1.02;0.38;;;19.90;58.10;;;;;;5054501;28;20049;-60
2022/12/29 06:41:27;;;;;;;0.73;0.22;;;19.90;58.00;;;;;;5054847;28;20041;-60
2022/12/29 06:43:53;;;;;;;1.40;0.20;;;19.90;58.00;;;;;;5053958;28;20033;-61
2022/12/29 06:46:18;;;;;;;0.80;0.25;;;19.90;58.00;;;;;;5055004;28;20044;-60
2022/12/29 06:48:44;;;;;;;1.25;0.30;;;19.90;57.90;;;;;;5055176;28;20072;-61
2022/12/29 06:51:10;;;;;;;1.30;0.30;;;19.90;57.90;;;;;;5052429;28;20156;-61
2022/12/29 06:53:35;;;;;;;1.23;0.30;;;20.00;58.00;;;;;;5054976;28;20036;-61
2022/12/29 06:56:01;;;;;;;0.80;0.20;;;19.90;57.80;;;;;;5055019;28;20041;-60
2022/12/29 06:58:26;;;;;;;1.38;0.30;;;20.00;57.90;;;;;;5053477;28;20033;-60
2022/12/29 07:00:52;;;;;;;1.17;0.25;;;20.00;57.80;;;;;;5063167;28;20052;-60
2022/12/29 07:03:17;;;;;;;2.22;0.35;;;20.00;57.80;;;;;;5074487;28;20093;-60
2022/12/29 07:05:43;;;;;;;0.75;0.20;;;20.00;57.80;;;;;;5073596;28;20131;-60
2022/12/29 07:08:08;;;;;;;0.68;0.30;;;20.00;57.70;;;;;;5074566;28;20080;-60
2022/12/29 07:10:34;;;;;;;4.43;0.50;;;20.00;57.70;;;;;;5070145;28;20036;-60
2022/12/29 07:12:59;;;;;;;3.53;0.70;;;20.00;57.70;;;;;;5073695;28;20037;-60
2022/12/29 07:15:25;;;;;;;1.17;0.38;;;20.00;57.60;;;;;;5073615;28;20056;-59
2022/12/29 07:17:51;;;;;;;2.28;0.43;;;20.10;57.50;;;;;;5074456;28;20488;-59
2022/12/29 07:20:16;;;;;;;2.03;0.40;;;20.10;57.40;;;;;;5073057;28;20086;-60
2022/12/29 07:22:42;;;;;;;1.85;0.82;;;20.10;57.30;;;;;;5072019;28;20436;-60
2022/12/29 07:25:08;;;;;;;3.28;0.70;;;20.10;57.20;;;;;;5051931;28;20040;-60
2022/12/29 07:27:33;;;;;;;3.28;0.70;;;20.20;57.20;;;;;;5053193;28;20492;-60
2022/12/29 07:29:59;;;;;;;5.13;0.50;;;20.20;57.20;;;;;;5053953;28;20124;-60
2022/12/29 07:32:24;;;;;;;2.58;0.60;;;20.20;57.20;;;;;;5052807;28;20048;-60
2022/12/29 07:34:50;;;;;;;3.03;0.60;;;20.20;57.20;;;;;;5053291;28;20080;-60
2022/12/29 07:37:15;;;;;;;6.88;0.90;;;20.20;57.20;;;;;;5053789;28;20095;-59
2022/12/29 07:39:41;;;;;;;12.32;0.77;;;20.20;57.30;;;;;;5054165;28;20087;-60
2022/12/29 07:42:06;;;;;;;4.22;0.60;;;20.30;57.50;;;;;;5053261;28;20079;-60
2022/12/29 07:44:32;;;;;;;3.15;0.60;;;20.30;57.60;;;;;;5053377;28;20063;-59
2022/12/29 07:46:58;;;;;;;4.70;0.50;;;20.30;57.60;;;;;;5054129;28;20037;-59
2022/12/29 07:49:23;;;;;;;2.65;0.70;;;20.40;57.70;;;;;;5052772;28;20488;-60
2022/12/29 07:51:49;;;;;;;3.83;0.60;;;20.40;57.80;;;;;;5053646;28;20111;-60
2022/12/29 07:54:17;;;;;;;4.53;0.60;;;20.40;58.50;;;;;;5053025;28;20044;-59
2022/12/29 07:56:43;;;;;;;2.08;0.70;;;20.40;57.80;;;;;;5053951;28;20472;-59
2022/12/29 07:59:09;;;;;;;3.38;0.60;;;20.40;57.80;;;;;;5053126;28;20133;-59
2022/12/29 08:01:34;;;;;;;4.13;0.60;;;20.40;57.80;;;;;;5052693;28;20135;-59
2022/12/29 08:04:00;;;;;;;4.05;0.73;;;20.50;57.90;;;;;;5053495;28;20037;-60
2022/12/29 08:06:25;;;;;;;2.38;0.60;;;20.50;57.90;;;;;;5051886;28;20052;-60
2022/12/29 08:08:51;;;;;;;3.67;0.75;;;20.50;57.80;;;;;;5052619;28;20037;-60
2022/12/29 08:11:17;;;;;;;3.88;0.60;;;20.50;57.80;;;;;;5052463;28;20045;-60
2022/12/29 08:13:42;;;;;;;4.18;0.68;;;20.50;57.70;;;;;;5053158;28;20414;-60
2022/12/29 08:16:08;;;;;;;4.85;0.60;;;20.50;57.70;;;;;;5052589;28;20077;-59
2022/12/29 08:18:33;;;;;;;3.80;0.60;;;20.50;57.70;;;;;;5053099;28;20040;-59
2022/12/29 08:21:05;;;;;;;4.50;1.05;;;20.50;57.70;;;;;;5052024;28;20049;-59
2022/12/29 08:23:31;;;;;;;2.35;0.73;;;20.60;57.70;;;;;;5052432;28;20056;-60
2022/12/29 08:26:00;;;;;;;3.38;0.50;;;20.60;57.70;;;;;;5051309;28;20025;-60
2022/12/29 08:28:26;;;;;;;5.05;0.60;;;20.50;57.60;;;;;;5052032;28;20045;-60
2022/12/29 08:30:51;;;;;;;3.08;0.50;;;20.60;57.70;;;;;;5052208;28;20395;-59
2022/12/29 08:33:17;;;;;;;4.85;0.75;;;20.60;57.70;;;;;;5052400;28;20033;-59
2022/12/29 08:35:42;;;;;;;2.75;0.50;;;20.60;57.80;;;;;;5052910;28;20139;-59
2022/12/29 08:38:08;;;;;;;4.22;0.60;;;20.60;57.80;;;;;;5046617;28;20041;-60
2022/12/29 08:40:33;;;;;;;2.67;0.50;;;20.60;57.80;;;;;;5048921;28;20045;-59
2022/12/29 08:42:59;;;;;;;2.60;0.50;;;20.60;57.70;;;;;;5053688;28;20045;-59
2022/12/29 08:45:25;;;;;;;5.93;0.60;;;20.60;57.50;;;;;;5048371;28;20068;-59
2022/12/29 08:47:50;;;;;;;3.25;0.68;;;20.60;57.50;;;;;;5050567;28;20044;-60
2022/12/29 08:50:16;;;;;;;1.98;0.50;;;20.60;57.50;;;;;;5052306;28;20151;-59
2022/12/29 08:52:41;;;;;;;2.78;0.50;;;20.60;57.50;;;;;;5051595;28;20036;-59
2022/12/29 08:55:07;;;;;;;2.72;0.40;;;20.60;57.50;;;;;;5052606;28;20470;-59
2022/12/29 08:57:33;;;;;;;3.72;0.52;;;20.60;57.50;;;;;;5051292;28;20037;-59
2022/12/29 08:59:58;;;;;;;5.15;0.63;;;20.60;57.50;;;;;;5052029;28;20062;-59
2022/12/29 09:02:24;;;;;;;2.50;0.50;;;20.60;57.30;;;;;;5051795;28;20037;-59
2022/12/29 09:04:50;;;;;;;3.25;0.50;;;20.60;57.30;;;;;;5051563;28;20111;-59
2022/12/29 09:07:15;;;;;;;1.80;0.45;;;20.60;57.20;;;;;;5052059;28;20091;-59
2022/12/29 09:09:41;;;;;;;3.70;0.50;;;20.60;57.10;;;;;;5052432;28;20048;-58
2022/12/29 09:12:06;;;;;;;2.10;0.57;;;20.60;57.00;;;;;;5051510;28;20529;-59
2022/12/29 09:14:32;;;;;;;1.67;0.40;;;20.60;57.00;;;;;;5050931;28;20049;-60
2022/12/29 09:19:41;;;;;;;4.95;0.45;;;20.60;57.20;;;;;;5051185;28;20044;-60
2022/12/29 09:22:07;;;;;;;3.75;0.60;;;20.60;57.20;;;;;;5051736;28;20132;-59
2022/12/29 09:24:33;;;;;;;3.50;0.50;;;20.60;57.20;;;;;;5051793;28;20041;-60
2022/12/29 09:26:58;;;;;;;3.45;0.50;;;20.60;57.20;;;;;;5051134;28;20193;-61
2022/12/29 09:29:24;;;;;;;3.20;0.40;;;20.60;57.20;;;;;;5051139;28;20052;-60
2022/12/29 09:31:49;;;;;;;2.40;0.57;;;20.60;57.20;;;;;;5051992;28;20049;-60
2022/12/29 09:34:15;;;;;;;3.45;0.65;;;20.60;57.20;;;;;;5050956;28;20084;-60
2022/12/29 09:36:41;;;;;;;1.02;0.40;;;20.60;57.20;;;;;;5051936;28;20187;-60
2022/12/29 09:39:06;;;;;;;2.97;0.50;;;20.60;57.10;;;;;;5052014;28;20467;-61
2022/12/29 09:41:53;;;;;;;3.22;0.50;;;20.60;57.10;;;;;;5050902;28;20041;-60
2022/12/29 09:44:26;;;;;;;2.42;0.50;;;20.60;57.20;;;;;;5051740;28;20124;-60
2022/12/29 09:46:52;;;;;;;3.03;0.50;;;20.60;57.20;;;;;;5049830;28;20056;-60
2022/12/29 09:49:49;;;;;;;1.67;0.40;;;20.60;57.20;;;;;;5051697;28;20503;-58
2022/12/29 09:52:18;;;;;;;2.92;0.50;;;20.60;57.20;;;;;;5054324;28;20052;-59
2022/12/29 09:54:54;;;;;;;3.45;0.80;;;20.50;57.00;;;;;;5051254;28;20052;-58
2022/12/29 09:57:33;;;;;;;1.80;0.50;;;20.50;56.90;;;;;;5054072;28;20511;-59
2022/12/29 10:00:02;;;;;;;2.92;0.50;;;20.50;57.00;;;;;;5054632;28;20056;-59
2022/12/29 10:02:32;;;;;;;3.20;0.70;;;20.40;57.10;;;;;;5036983;28;20497;-59
2022/12/29 10:04:58;;;;;;;3.80;0.70;;;20.40;57.20;;;;;;5054316;28;20083;-59
2022/12/29 10:07:50;;;;;;;4.03;0.70;;;20.40;57.40;;;;;;5054054;28;20076;-59
2022/12/29 10:10:23;;;;;;;2.05;0.70;;;20.30;57.40;;;;;;5049216;28;20132;-59
2022/12/29 10:13:05;;;;;;;3.25;0.40;;;20.30;57.50;;;;;;5051298;28;20060;-59
2022/12/29 10:15:39;;;;;;;3.35;0.57;;;20.30;57.50;;;;;;5052516;28;20049;-60
2022/12/29 10:18:18;;;;;;;5.28;0.80;;;20.30;57.50;;;;;;5050775;28;20047;-59
2022/12/29 10:21:07;;;;;;;3.67;0.70;;;20.20;57.40;;;;;;5054633;28;20048;-59
2022/12/29 10:23:42;;;;;;;1.38;0.40;;;20.20;57.50;;;;;;5051740;28;20098;-59
2022/12/29 10:26:15;;;;;;;2.78;0.50;;;20.20;57.60;;;;;;5038485;28;20087;-59
2022/12/29 10:29:05;;;;;;;3.25;0.50;;;20.20;57.70;;;;;;5036901;28;20449;-60
2022/12/29 10:31:38;;;;;;;2.10;0.40;;;20.10;57.60;;;;;;5055211;28;20476;-59
2022/12/29 10:34:12;;;;;;;3.42;0.73;;;20.10;57.70;;;;;;5054052;28;20036;-60
2022/12/29 10:36:43;;;;;;;4.38;0.55;;;20.10;57.60;;;;;;5037581;28;20548;-59
2022/12/29 10:39:22;;;;;;;4.35;0.50;;;20.10;57.60;;;;;;5053771;28;20073;-60
2022/12/29 10:41:56;;;;;;;2.63;0.57;;;20.10;57.70;;;;;;5053755;28;20099;-60
2022/12/29 10:44:21;;;;;;;4.32;0.77;;;20.10;57.60;;;;;;5036581;28;20045;-60
2022/12/29 10:47:00;;;;;;;3.53;0.60;;;20.00;57.70;;;;;;5053650;28;20041;-60
2022/12/29 10:49:26;;;;;;;3.10;0.50;;;20.00;57.60;;;;;;5037102;28;20052;-61
2022/12/29 10:51:52;;;;;;;4.10;0.70;;;20.00;57.70;;;;;;5052745;28;20029;-60
2022/12/29 10:54:32;;;;;;;2.33;0.50;;;20.00;57.60;;;;;;5054259;28;20412;-61
2022/12/29 10:57:12;;;;;;;2.20;0.57;;;20.00;57.40;;;;;;5060006;28;20507;-60
2022/12/29 10:59:38;;;;;;;2.35;0.60;;;20.00;57.50;;;;;;5058556;28;20045;-59
2022/12/29 11:02:06;;;;;;;4.63;0.70;;;20.00;57.60;;;;;;5062344;28;20071;-59
2022/12/29 11:04:39;;;;;;;;;;;20.00;57.60;;;;;;5059651;28;20037;-59
2022/12/29 11:07:06;;;;;;;2.95;0.60;;;20.00;57.50;;;;;;5058378;28;19920;-59
2022/12/29 11:09:33;;;;;;;2.78;0.52;;;19.90;57.60;;;;;;5060928;28;20048;-59
2022/12/29 11:11:59;;;;;;;3.00;0.60;;;19.90;57.60;;;;;;5059589;28;20033;-59
2022/12/29 11:14:29;;;;;;;2.53;0.60;;;19.90;57.60;;;;;;5059966;28;20514;-59
2022/12/29 11:16:59;;;;;;;5.13;0.50;;;19.90;57.60;;;;;;5054407;28;20489;-59
2022/12/29 11:19:30;;;;;;;3.88;0.50;;;19.90;57.60;;;;;;5052764;28;20052;-59
2022/12/29 11:22:11;;;;;;;4.35;0.63;;;19.90;57.70;;;;;;5053297;28;20049;-60
2022/12/29 11:24:37;;;;;;;2.35;0.60;;;19.90;57.60;;;;;;5052883;28;20052;-60
2022/12/29 11:27:14;;;;;;;1.55;0.38;;;20.00;57.60;;;;;;5035139;28;20045;-60
2022/12/29 11:29:41;;;;;;;2.23;0.60;;;19.90;57.50;;;;;;5052737;28;20045;-60
2022/12/29 11:32:25;;;;;;;3.40;0.60;;;19.90;57.60;;;;;;5054034;28;20120;-59
2022/12/29 11:34:51;;;;;;;2.80;0.60;;;19.90;57.50;;;;;;5053994;28;20052;-59
2022/12/29 11:37:38;;;;;;;3.83;0.65;;;19.90;57.50;;;;;;5053764;28;20425;-59
2022/12/29 11:40:07;;;;;;;3.80;0.50;;;19.90;57.50;;;;;;5051991;28;20049;-59
2022/12/29 11:42:41;;;;;;;3.58;0.70;;;19.90;57.50;;;;;;5053421;28;20091;-59
2022/12/29 11:45:14;;;;;;;1.30;0.47;;;19.90;57.50;;;;;;5052399;28;20102;-59
2022/12/29 11:47:42;;;;;;;2.45;0.60;;;19.80;57.40;;;;;;5051962;28;20051;-59
2022/12/29 11:50:08;;;;;;;2.70;0.60;;;19.80;57.40;;;;;;5035996;28;20047;-59
2022/12/29 11:52:35;;;;;;;3.00;0.65;;;19.80;57.40;;;;;;5050913;28;20051;-59
2022/12/29 11:55:03;;;;;;;2.78;0.70;;;19.80;57.40;;;;;;5035050;28;20055;-59
2022/12/29 11:57:28;;;;;;;2.40;0.50;;;19.80;57.50;;;;;;5051747;28;20040;-59
2022/12/29 11:59:55;;;;;;;3.00;0.50;;;19.80;57.50;;;;;;5052355;28;20110;-59
2022/12/29 12:02:41;;;;;;;1.85;0.52;;;19.80;57.50;;;;;;5052323;28;20051;-59
2022/12/29 12:05:17;;;;;;;5.72;1.35;;;19.80;57.50;;;;;;5052206;28;20124;-59
2022/12/29 12:07:44;;;;;;;2.75;0.60;;;19.80;57.50;;;;;;5052648;28;20524;-59
2022/12/29 12:10:27;;;;;;;3.00;0.60;;;19.80;57.60;;;;;;5031813;28;20045;-59
2022/12/29 12:13:12;;;;;;;4.72;0.95;;;19.80;57.50;;;;;;5051855;28;20037;-59
2022/12/29 12:15:41;;;;;;;4.05;0.95;;;19.80;57.60;;;;;;5049050;28;20049;-59
2022/12/29 12:18:41;;;;;;;3.78;1.38;;;19.80;57.70;;;;;;5050825;28;20045;-59
2022/12/29 12:21:09;;;;;;;4.53;1.42;;;19.80;57.80;;;;;;5061503;28;20059;-59
2022/12/29 12:23:37;;;;;;;4.82;1.10;;;19.80;57.70;;;;;;5072092;28;20503;-59
2022/12/29 12:26:16;;;;;;;4.95;1.10;;;19.80;57.80;;;;;;5072570;28;20404;-59
2022/12/29 12:28:54;;;;;;;5.32;1.15;;;19.80;57.80;;;;;;5070669;28;20045;-59
2022/12/29 12:31:27;;;;;;;3.35;0.98;;;19.90;57.70;;;;;;5071220;28;20040;-59
2022/12/29 12:33:58;;;;;;;4.38;0.90;;;19.90;57.70;;;;;;5072952;28;20045;-58
2022/12/29 12:36:46;;;;;;;3.03;1.17;;;19.90;57.60;;;;;;5070576;28;20040;-59
2022/12/29 12:39:52;;;;;;;5.32;1.30;;;19.90;57.50;;;;;;5071179;28;20426;-59
2022/12/29 12:42:39;;;;;;;4.03;1.40;;;19.90;57.40;;;;;;5071807;28;20416;-59
2022/12/29 12:45:32;;;;;;;4.90;1.27;;;19.90;57.40;;;;;;5056029;28;20040;-59
2022/12/29 12:48:10;;;;;;;5.15;1.42;;;19.90;57.40;;;;;;5072388;28;20370;-59
2022/12/29 12:50:47;;;;;;;4.00;0.97;;;19.90;57.40;;;;;;5071566;28;20244;-59
2022/12/29 12:53:43;;;;;;;6.33;1.83;;;19.90;57.40;;;;;;5072265;28;20313;-59
2022/12/29 12:56:16;;;;;;;4.15;1.10;;;19.90;57.40;;;;;;5072383;28;20045;-60
2022/12/29 12:59:17;;;;;;;4.18;1.08;;;19.90;57.40;;;;;;5070119;28;20055;-59
2022/12/29 13:02:11;;;;;;;6.95;1.10;;;19.90;57.40;;;;;;5070998;28;20047;-59
2022/12/29 13:04:43;;;;;;;4.15;1.05;;;20.00;57.40;;;;;;5071425;28;20041;-58
2022/12/29 13:07:26;;;;;;;2.45;0.95;;;20.00;57.40;;;;;;5071922;28;20585;-58
2022/12/29 13:10:13;;;;;;;3.70;1.08;;;20.00;58.10;;;;;;5072238;28;20472;-58
2022/12/29 13:12:53;;;;;;;3.65;1.00;;;20.00;57.40;;;;;;5066526;28;20472;-58
2022/12/29 13:15:38;;;;;;;4.88;1.20;;;20.00;57.40;;;;;;5070458;28;20059;-58
2022/12/29 13:18:27;;;;;;;6.68;1.33;;;20.00;57.40;;;;;;5071160;28;20044;-59
2022/12/29 13:21:07;;;;;;;4.40;0.90;;;20.00;57.40;;;;;;5071936;28;20080;-59
2022/12/29 13:23:47;;;;;;;5.78;1.35;;;20.00;57.40;;;;;;5070785;28;20111;-59
2022/12/29 13:26:33;;;;;;;3.72;1.33;;;20.00;57.40;;;;;;5070014;28;20048;-59
2022/12/29 13:29:35;;;;;;;4.75;0.93;;;20.00;57.30;;;;;;5070713;28;20068;-59
2022/12/29 13:32:09;;;;;;;5.07;1.20;;;20.10;57.40;;;;;;5074356;28;20052;-59
2022/12/29 13:35:10;;;;;;;4.30;1.00;;;20.10;57.40;;;;;;5074660;28;20040;-59
2022/12/29 13:37:44;;;;;;;3.40;0.98;;;20.10;57.40;;;;;;5075142;28;20048;-59
2022/12/29 13:40:13;;;;;;;3.67;1.02;;;20.10;57.40;;;;;;5073936;28;20048;-59
2022/12/29 13:42:38;;;;;;;4.55;1.20;;;20.10;57.30;;;;;;5074651;28;20055;-59
2022/12/29 13:45:06;;;;;;;5.95;1.20;;;20.10;57.20;;;;;;5074762;28;20044;-59
2022/12/29 13:47:41;;;;;;;4.38;1.23;;;20.10;57.10;;;;;;5073906;28;20044;-59